Time;durP1;ratioP1;P1;durP2;ratioP2;P2;SDS_P1;SDS_P2;PMS_P1;PMS_P2;Temp;Humidity;BMP_temperature;BMP_pressure;BME280_temperature;BME280_humidity;BME280_pressure;Samples;Min_cycle;Max_cycle;Signal;HPM_P1;HPM_P2
2023/09/20 00:00:12;;;;;;;0.90;0.90;;;22.60;76.70;;;;;;5070652;28;43448;-66
2023/09/20 00:02:41;;;;;;;0.80;0.80;;;22.70;76.40;;;;;;5076974;28;43388;-65
2023/09/20 00:05:14;;;;;;;0.90;0.90;;;22.80;75.80;;;;;;5076057;28;43535;-65
2023/09/20 00:07:43;;;;;;;1.10;1.10;;;22.90;75.50;;;;;;5074992;28;43608;-65
2023/09/20 00:10:14;;;;;;;0.70;0.70;;;22.90;75.50;;;;;;5071735;28;44803;-65
2023/09/20 00:12:44;;;;;;;0.80;0.80;;;22.90;75.60;;;;;;5057922;28;43524;-65
2023/09/20 00:15:12;;;;;;;0.90;0.90;;;22.80;75.80;;;;;;5073630;28;43435;-65
2023/09/20 00:17:40;;;;;;;0.87;0.87;;;22.70;76.20;;;;;;5077331;28;43711;-67
2023/09/20 00:20:12;;;;;;;0.90;0.90;;;22.70;76.20;;;;;;5077045;28;44034;-67
2023/09/20 00:22:41;;;;;;;0.93;0.93;;;22.70;76.10;;;;;;5075949;28;43836;-66
2023/09/20 00:25:10;;;;;;;0.80;0.80;;;22.70;76.30;;;;;;5078086;28;43432;-66
2023/09/20 00:27:40;;;;;;;0.90;0.90;;;22.60;76.70;;;;;;5073974;28;43693;-66
2023/09/20 00:30:10;;;;;;;0.90;0.90;;;22.60;76.70;;;;;;5076659;28;43427;-66
2023/09/20 00:32:40;;;;;;;0.80;0.80;;;22.60;76.60;;;;;;5074814;28;43934;-64
2023/09/20 00:35:10;;;;;;;0.70;0.70;;;22.60;76.60;;;;;;5073966;28;43503;-65
2023/09/20 00:37:39;;;;;;;1.00;1.00;;;22.50;76.90;;;;;;5059146;28;45381;-69
2023/09/20 00:40:15;;;;;;;0.87;0.87;;;22.50;77.00;;;;;;5051704;28;44397;-70
2023/09/20 00:42:46;;;;;;;0.90;0.90;;;22.60;76.70;;;;;;5060783;28;43523;-70
2023/09/20 00:45:15;;;;;;;0.83;0.83;;;22.80;76.40;;;;;;5067337;28;43911;-70
2023/09/20 00:47:44;;;;;;;0.80;0.80;;;22.90;75.90;;;;;;5053582;28;45641;-70
2023/09/20 00:50:13;;;;;;;1.00;1.00;;;22.90;75.70;;;;;;5070589;28;43890;-70
2023/09/20 00:52:42;;;;;;;0.80;0.80;;;22.90;75.60;;;;;;5067351;28;43456;-70
2023/09/20 00:55:15;;;;;;;0.70;0.70;;;22.80;75.60;;;;;;5067877;28;43837;-76
2023/09/20 00:57:46;;;;;;;1.00;1.00;;;22.80;76.20;;;;;;5066426;28;45320;-71
2023/09/20 01:00:21;;;;;;;1.03;1.03;;;22.70;76.20;;;;;;5068584;28;43712;-66
2023/09/20 01:02:51;;;;;;;0.80;0.80;;;22.70;76.20;;;;;;5084302;22;43582;-69
2023/09/20 01:05:21;;;;;;;0.80;0.80;;;22.70;76.20;;;;;;5049175;28;43555;-70
2023/09/20 01:07:50;;;;;;;0.80;0.80;;;22.60;76.30;;;;;;5048090;28;45681;-69
2023/09/20 01:10:22;;;;;;;0.90;0.90;;;22.60;76.80;;;;;;5050962;28;43667;-70
2023/09/20 01:12:54;;;;;;;0.90;0.90;;;22.60;76.70;;;;;;5069780;28;44126;-69
2023/09/20 01:15:22;;;;;;;0.70;0.70;;;22.60;76.70;;;;;;5048134;28;43518;-69
2023/09/20 01:17:53;;;;;;;1.00;1.00;;;22.50;76.50;;;;;;5041996;28;45024;-69
2023/09/20 01:20:24;;;;;;;0.90;0.90;;;22.50;77.00;;;;;;5069366;28;43995;-69
2023/09/20 01:22:54;;;;;;;0.80;0.80;;;22.50;77.10;;;;;;5069375;28;43388;-70
2023/09/20 01:25:24;;;;;;;0.90;0.90;;;22.60;76.80;;;;;;5058010;28;43465;-71
2023/09/20 01:27:55;;;;;;;0.70;0.70;;;22.70;76.40;;;;;;5040484;28;43891;-71
2023/09/20 01:30:25;;;;;;;0.73;0.73;;;22.90;76.00;;;;;;5062371;28;43775;-69
2023/09/20 01:32:54;;;;;;;0.80;0.80;;;22.90;75.90;;;;;;5047832;28;43475;-69
2023/09/20 01:35:23;;;;;;;0.80;0.80;;;22.80;75.80;;;;;;5068906;28;43909;-69
2023/09/20 01:37:53;;;;;;;0.70;0.70;;;22.80;76.00;;;;;;5069546;28;44221;-71
2023/09/20 01:40:25;;;;;;;0.80;0.80;;;22.70;76.40;;;;;;5048774;28;44704;-71
2023/09/20 01:42:56;;;;;;;0.70;0.70;;;22.70;76.60;;;;;;5058039;28;43459;-69
2023/09/20 01:45:24;;;;;;;0.80;0.80;;;22.70;76.60;;;;;;5041650;28;43457;-70
2023/09/20 01:47:53;;;;;;;0.90;0.90;;;22.60;76.50;;;;;;5068229;28;43577;-71
2023/09/20 01:50:22;;;;;;;0.97;0.97;;;22.60;76.70;;;;;;5062390;28;43475;-70
2023/09/20 01:52:51;;;;;;;0.70;0.70;;;22.50;77.00;;;;;;5046034;28;43490;-69
2023/09/20 01:55:21;;;;;;;0.80;0.80;;;22.60;77.30;;;;;;5049050;28;43928;-69
2023/09/20 01:57:50;;;;;;;0.80;0.80;;;22.70;76.50;;;;;;5042176;28;45946;-69
2023/09/20 02:00:22;;;;;;;1.00;1.00;;;22.80;76.30;;;;;;5045391;28;45007;-69
2023/09/20 02:02:51;;;;;;;0.80;0.80;;;22.70;76.10;;;;;;5080433;28;43387;-69
2023/09/20 02:05:20;;;;;;;0.80;0.80;;;22.70;76.40;;;;;;5079008;28;43780;-68
2023/09/20 02:07:48;;;;;;;0.83;0.83;;;22.70;76.40;;;;;;5050977;28;47048;-68
2023/09/20 02:10:17;;;;;;;0.70;0.70;;;22.70;76.40;;;;;;5088190;28;43523;-69
2023/09/20 02:12:47;;;;;;;0.80;0.80;;;22.70;76.30;;;;;;5088292;28;43386;-69
2023/09/20 02:15:15;;;;;;;0.80;0.80;;;22.60;76.40;;;;;;5058804;28;44170;-69
2023/09/20 02:17:43;;;;;;;0.83;0.83;;;22.60;76.90;;;;;;5052175;28;46281;-69
2023/09/20 02:20:19;;;;;;;0.80;0.80;;;22.60;76.90;;;;;;5076092;28;43954;-75
2023/09/20 02:22:48;;;;;;;0.90;0.90;;;22.60;76.80;;;;;;5053341;28;43991;-69
2023/09/20 02:25:20;;;;;;;0.80;0.80;;;22.50;76.70;;;;;;5074902;27;43533;-70
2023/09/20 02:27:49;;;;;;;1.00;1.00;;;22.50;77.10;;;;;;5055705;28;44907;-71
2023/09/20 02:30:19;;;;;;;0.80;0.80;;;22.50;77.20;;;;;;5088464;28;43498;-69
2023/09/20 02:32:51;;;;;;;0.90;0.90;;;22.50;77.20;;;;;;5056399;28;43459;-71
2023/09/20 02:35:19;;;;;;;0.80;0.80;;;22.50;77.70;;;;;;5046860;28;43459;-68
2023/09/20 02:37:48;;;;;;;0.73;0.73;;;22.50;77.00;;;;;;5079505;28;43887;-71
2023/09/20 02:40:17;;;;;;;0.80;0.80;;;22.40;77.50;;;;;;5073737;28;43391;-67
2023/09/20 02:42:46;;;;;;;0.80;0.80;;;22.50;77.30;;;;;;5082217;28;43416;-70
2023/09/20 02:45:17;;;;;;;0.87;0.87;;;22.60;76.80;;;;;;5062002;28;43416;-71
2023/09/20 02:47:46;;;;;;;0.70;0.70;;;22.70;76.40;;;;;;5060538;28;44610;-71
2023/09/20 02:50:16;;;;;;;0.70;0.70;;;22.90;76.10;;;;;;5050658;28;43858;-71
2023/09/20 02:52:45;;;;;;;1.20;0.90;;;22.90;75.90;;;;;;5056577;28;43439;-71
2023/09/20 02:55:13;;;;;;;0.90;0.90;;;22.80;75.80;;;;;;5054282;28;43994;-69
2023/09/20 02:57:42;;;;;;;0.70;0.70;;;22.80;76.10;;;;;;5058057;28;44991;-69
2023/09/20 03:00:15;;;;;;;0.83;0.83;;;22.70;76.40;;;;;;5055571;28;43996;-69
2023/09/20 03:02:47;;;;;;;0.73;0.73;;;22.70;76.60;;;;;;5058233;28;43470;-69
2023/09/20 03:05:17;;;;;;;1.00;1.00;;;22.60;76.40;;;;;;5081563;28;43364;-70
2023/09/20 03:07:45;;;;;;;0.80;0.80;;;22.60;76.60;;;;;;5053012;28;44382;-69
2023/09/20 03:10:14;;;;;;;0.90;0.90;;;22.50;77.00;;;;;;5056434;28;43436;-70
2023/09/20 03:12:44;;;;;;;0.90;0.90;;;22.50;76.90;;;;;;5058588;28;43404;-71
2023/09/20 03:15:16;;;;;;;0.90;0.90;;;22.60;76.60;;;;;;5052267;28;43566;-71
2023/09/20 03:17:47;;;;;;;0.80;0.80;;;22.70;76.40;;;;;;5053325;28;45790;-70
2023/09/20 03:20:22;;;;;;;0.90;0.90;;;22.70;76.40;;;;;;5056412;28;44501;-69
2023/09/20 03:22:55;;;;;;;0.80;0.80;;;22.70;76.40;;;;;;5061514;28;44116;-69
2023/09/20 03:25:24;;;;;;;0.80;0.80;;;22.60;76.60;;;;;;5057197;28;43568;-71
2023/09/20 03:27:54;;;;;;;0.87;0.87;;;22.60;76.50;;;;;;5051025;28;46073;-71
2023/09/20 03:30:22;;;;;;;1.00;1.00;;;22.60;76.60;;;;;;5043994;28;45021;-69
2023/09/20 03:32:51;;;;;;;1.00;1.00;;;22.60;76.60;;;;;;5068672;28;43429;-69
2023/09/20 03:35:21;;;;;;;0.80;0.80;;;22.50;76.90;;;;;;5048350;28;43445;-68
2023/09/20 03:37:49;;;;;;;0.83;0.83;;;22.50;77.00;;;;;;5073515;28;44164;-68
2023/09/20 03:40:19;;;;;;;0.77;0.77;;;22.50;76.90;;;;;;5053290;28;44555;-69
2023/09/20 03:42:48;;;;;;;0.80;0.80;;;22.50;76.90;;;;;;5058485;28;43403;-70
2023/09/20 03:45:17;;;;;;;0.93;0.93;;;22.50;77.90;;;;;;5080636;28;43953;-73
2023/09/20 03:47:45;;;;;;;1.03;1.03;;;22.40;77.30;;;;;;5057196;28;45703;-70
2023/09/20 03:50:18;;;;;;;0.80;0.80;;;22.50;77.00;;;;;;5051024;28;44867;-70
2023/09/20 03:52:46;;;;;;;0.80;0.80;;;22.70;76.80;;;;;;5051820;28;43990;-70
2023/09/20 03:55:14;;;;;;;0.80;0.80;;;22.80;76.30;;;;;;5055100;28;43621;-70
2023/09/20 03:57:42;;;;;;;0.90;0.90;;;22.80;76.00;;;;;;5050757;28;46613;-70
2023/09/20 04:00:12;;;;;;;0.93;0.93;;;22.80;76.10;;;;;;5055956;28;45215;-70
2023/09/20 04:02:42;;;;;;;0.90;0.90;;;22.70;76.20;;;;;;5045120;28;43902;-70
2023/09/20 04:05:15;;;;;;;0.70;0.70;;;22.60;76.60;;;;;;5044061;28;43408;-70
2023/09/20 04:08:06;;;;;;;1.10;1.10;;;22.60;76.60;;;;;;5051831;28;43896;-70
2023/09/20 04:10:35;;;;;;;0.80;0.80;;;22.60;76.70;;;;;;5045831;28;43397;-70
2023/09/20 04:13:04;;;;;;;0.90;0.90;;;22.50;76.70;;;;;;5062409;28;44071;-70
2023/09/20 04:15:33;;;;;;;0.90;0.90;;;22.50;77.00;;;;;;5062635;28;43443;-70
2023/09/20 04:18:08;;;;;;;0.87;0.87;;;22.50;77.30;;;;;;5047967;28;45714;-70
2023/09/20 04:20:36;;;;;;;0.90;0.90;;;22.50;77.00;;;;;;5057684;28;43348;-70
2023/09/20 04:23:09;;;;;;;0.80;0.80;;;22.70;77.30;;;;;;5048513;28;43550;-70
2023/09/20 04:25:39;;;;;;;0.90;0.90;;;22.80;76.10;;;;;;5037813;28;43466;-70
2023/09/20 04:28:09;;;;;;;0.83;0.83;;;22.80;76.00;;;;;;5042137;28;44875;-70
2023/09/20 04:30:38;;;;;;;0.90;0.90;;;22.80;76.00;;;;;;5047074;28;44728;-70
2023/09/20 04:33:10;;;;;;;0.83;0.83;;;22.70;76.10;;;;;;5046069;28;43942;-70
2023/09/20 04:35:40;;;;;;;0.90;0.90;;;22.70;76.70;;;;;;5047870;28;43375;-70
2023/09/20 04:38:16;;;;;;;1.00;1.00;;;22.60;76.60;;;;;;5048417;28;44049;-68
2023/09/20 04:40:44;;;;;;;0.87;0.87;;;22.60;76.70;;;;;;5048190;28;44945;-66
2023/09/20 04:43:14;;;;;;;0.90;0.90;;;22.60;76.80;;;;;;5048210;28;43375;-66
2023/09/20 04:45:44;;;;;;;0.80;0.80;;;22.50;77.00;;;;;;5042561;28;43420;-67
2023/09/20 04:48:13;;;;;;;0.97;0.97;;;22.50;77.20;;;;;;5061470;28;43869;-66
2023/09/20 04:50:41;;;;;;;0.93;0.93;;;22.60;77.70;;;;;;5049668;28;44421;-66
2023/09/20 04:53:09;;;;;;;1.13;1.13;;;22.60;76.60;;;;;;5051542;28;44037;-66
2023/09/20 04:55:39;;;;;;;1.03;1.03;;;22.70;76.50;;;;;;5049865;28;43422;-67
2023/09/20 04:58:08;;;;;;;1.20;1.20;;;22.70;76.40;;;;;;5039559;28;45713;-66
2023/09/20 05:00:37;;;;;;;1.20;1.20;;;22.60;76.60;;;;;;5047622;28;44805;-67
2023/09/20 05:03:07;;;;;;;1.30;1.30;;;22.60;76.60;;;;;;5043744;28;44101;-67
2023/09/20 05:05:36;;;;;;;1.30;1.30;;;22.60;76.60;;;;;;5063405;28;43844;-66
2023/09/20 05:08:05;;;;;;;1.10;1.10;;;22.60;76.60;;;;;;5060351;28;46124;-66
2023/09/20 05:10:33;;;;;;;1.00;1.00;;;22.50;76.70;;;;;;5070221;28;43468;-66
2023/09/20 05:13:04;;;;;;;1.10;1.10;;;22.50;77.00;;;;;;5052268;28;43412;-66
2023/09/20 05:15:32;;;;;;;1.00;1.00;;;22.50;77.00;;;;;;5062032;28;43539;-67
2023/09/20 05:18:01;;;;;;;1.13;1.13;;;22.50;76.90;;;;;;5059722;28;45111;-67
2023/09/20 05:20:31;;;;;;;1.20;1.20;;;22.50;77.00;;;;;;5051992;28;44763;-66
2023/09/20 05:23:00;;;;;;;1.23;1.13;;;22.40;77.30;;;;;;5069961;28;43931;-66
2023/09/20 05:25:29;;;;;;;1.30;1.30;;;22.40;77.30;;;;;;5055461;28;44014;-66
2023/09/20 05:27:59;;;;;;;1.30;1.30;;;22.50;77.00;;;;;;5061474;28;45378;-67
2023/09/20 05:30:29;;;;;;;1.30;1.30;;;22.70;76.70;;;;;;5060740;28;45157;-67
2023/09/20 05:32:58;;;;;;;1.30;1.30;;;22.80;76.10;;;;;;5049896;28;43404;-67
2023/09/20 05:35:27;;;;;;;1.10;1.10;;;22.80;76.00;;;;;;5070310;28;43873;-67
2023/09/20 05:37:55;;;;;;;1.40;1.40;;;22.80;76.00;;;;;;5070053;28;44072;-66
2023/09/20 05:40:23;;;;;;;1.33;1.33;;;22.70;76.10;;;;;;5070312;28;43511;-66
2023/09/20 05:42:51;;;;;;;1.40;1.30;;;22.60;76.50;;;;;;5075482;28;43442;-66
2023/09/20 05:45:20;;;;;;;1.20;1.20;;;22.60;76.60;;;;;;5069588;28;43467;-66
2023/09/20 05:47:50;;;;;;;1.30;1.30;;;22.60;76.70;;;;;;5069801;28;43907;-63
2023/09/20 05:50:23;;;;;;;1.40;1.40;;;22.50;76.70;;;;;;5070352;28;43359;-63
2023/09/20 05:52:52;;;;;;;1.37;1.37;;;22.50;77.00;;;;;;5070747;28;43532;-65
2023/09/20 05:55:22;;;;;;;1.50;1.50;;;22.50;77.20;;;;;;5071236;28;43392;-65
2023/09/20 05:57:51;;;;;;;1.40;1.40;;;22.50;77.20;;;;;;5068186;28;43820;-63
2023/09/20 06:00:22;;;;;;;1.47;1.47;;;22.40;77.10;;;;;;5076345;28;43359;-64
2023/09/20 06:02:51;;;;;;;1.40;1.40;;;22.40;77.10;;;;;;5072104;28;43383;-64
2023/09/20 06:05:20;;;;;;;1.23;1.23;;;22.40;77.40;;;;;;5080531;28;43385;-63
2023/09/20 06:07:48;;;;;;;1.30;1.30;;;22.40;77.20;;;;;;5066884;28;43604;-63
2023/09/20 06:10:17;;;;;;;1.37;1.37;;;22.50;76.90;;;;;;5079843;28;43937;-64
2023/09/20 06:12:45;;;;;;;1.50;1.50;;;22.70;76.50;;;;;;5074990;28;43354;-63
2023/09/20 06:15:14;;;;;;;1.40;1.40;;;22.70;76.10;;;;;;5085322;28;43433;-64
2023/09/20 06:17:42;;;;;;;1.40;1.40;;;22.80;76.10;;;;;;5083288;28;43612;-64
2023/09/20 06:20:13;;;;;;;1.40;1.40;;;22.70;76.10;;;;;;5084053;28;43479;-65
2023/09/20 06:22:42;;;;;;;1.40;1.40;;;22.60;76.20;;;;;;5086136;28;43434;-63
2023/09/20 06:25:11;;;;;;;1.50;1.43;;;22.60;76.60;;;;;;5084239;28;43497;-63
2023/09/20 06:27:40;;;;;;;1.40;1.40;;;22.50;76.60;;;;;;5070931;28;43722;-63
2023/09/20 06:30:13;;;;;;;1.30;1.30;;;22.50;76.70;;;;;;5055752;28;45819;-63
2023/09/20 06:32:44;;;;;;;1.40;1.40;;;22.50;76.80;;;;;;5086288;28;43429;-63
2023/09/20 06:35:15;;;;;;;1.40;1.40;;;22.40;77.00;;;;;;5089632;28;43897;-63
2023/09/20 06:37:45;;;;;;;1.30;1.30;;;22.40;77.00;;;;;;5088795;28;43862;-65
2023/09/20 06:40:22;;;;;;;1.33;1.33;;;22.50;76.90;;;;;;5080196;28;43423;-63
2023/09/20 06:42:51;;;;;;;1.50;1.50;;;22.60;76.50;;;;;;5078285;28;43442;-65
2023/09/20 06:45:19;;;;;;;1.40;1.40;;;22.60;76.10;;;;;;5086991;28;43395;-65
2023/09/20 06:47:47;;;;;;;1.50;1.50;;;22.60;76.10;;;;;;5071427;28;43863;-64
2023/09/20 06:50:17;;;;;;;1.40;1.40;;;22.60;76.40;;;;;;5086682;28;43461;-64
2023/09/20 06:52:46;;;;;;;1.40;1.40;;;22.60;76.40;;;;;;5087307;28;43406;-64
2023/09/20 06:55:16;;;;;;;1.57;1.57;;;22.60;76.20;;;;;;5075483;28;43442;-64
2023/09/20 06:57:45;;;;;;;1.40;1.40;;;22.50;76.30;;;;;;5078780;28;43884;-67
2023/09/20 07:00:24;;;;;;;1.70;1.60;;;22.50;76.50;;;;;;5078652;28;43527;-67
2023/09/20 07:02:55;;;;;;;1.57;1.47;;;22.40;76.40;;;;;;5079892;28;43490;-66
2023/09/20 07:05:28;;;;;;;1.27;1.27;;;22.40;76.30;;;;;;5052156;28;44699;-67
2023/09/20 07:07:58;;;;;;;1.40;1.40;;;22.40;76.50;;;;;;5072179;28;44019;-66
2023/09/20 07:10:29;;;;;;;1.60;1.60;;;22.40;77.40;;;;;;5076103;28;43431;-66
2023/09/20 07:12:57;;;;;;;1.50;1.50;;;22.30;76.70;;;;;;5074021;28;43361;-66
2023/09/20 07:15:25;;;;;;;1.50;1.50;;;22.30;76.80;;;;;;5079506;28;43427;-67
2023/09/20 07:18:01;;;;;;;1.40;1.40;;;22.40;76.70;;;;;;5077799;28;44035;-66
2023/09/20 07:20:32;;;;;;;1.33;1.33;;;22.50;76.50;;;;;;5079241;28;43377;-68
2023/09/20 07:23:00;;;;;;;1.40;1.40;;;22.70;76.10;;;;;;5074066;28;43444;-67
2023/09/20 07:25:29;;;;;;;1.60;1.50;;;22.70;75.80;;;;;;5077060;28;43936;-67
2023/09/20 07:27:58;;;;;;;1.50;1.50;;;22.70;75.80;;;;;;5077397;28;43715;-66
2023/09/20 07:30:31;;;;;;;1.30;1.30;;;22.60;75.90;;;;;;5076646;28;43427;-68
2023/09/20 07:33:01;;;;;;;1.30;1.30;;;22.60;76.20;;;;;;5076166;28;43914;-66
2023/09/20 07:35:47;;;;;;;1.30;1.30;;;22.50;76.40;;;;;;5076749;28;43463;-66
2023/09/20 07:38:25;;;;;;;1.40;1.40;;;22.50;76.50;;;;;;5078041;28;43848;-67
2023/09/20 07:41:02;;;;;;;1.33;1.33;;;22.40;76.60;;;;;;5073452;28;43999;-67
2023/09/20 07:43:30;;;;;;;1.40;1.40;;;22.40;76.70;;;;;;5070072;28;43561;-67
2023/09/20 07:46:03;;;;;;;1.30;1.30;;;22.40;77.10;;;;;;5073225;28;43459;-67
2023/09/20 07:48:33;;;;;;;1.40;1.40;;;22.30;76.90;;;;;;5076221;28;44064;-67
2023/09/20 07:51:04;;;;;;;1.20;1.20;;;22.30;76.90;;;;;;5071322;28;43479;-67
2023/09/20 07:53:32;;;;;;;1.20;1.20;;;22.30;77.00;;;;;;5073835;28;43975;-67
2023/09/20 07:56:01;;;;;;;1.30;1.30;;;22.30;77.10;;;;;;5085206;28;43476;-67
2023/09/20 07:58:30;;;;;;;1.47;1.47;;;22.30;77.20;;;;;;5074972;28;43681;-67
2023/09/20 08:00:58;;;;;;;1.33;1.33;;;22.30;76.90;;;;;;5075197;28;44476;-67
2023/09/20 08:03:31;;;;;;;1.33;1.33;;;22.50;76.60;;;;;;5074740;28;43985;-67
2023/09/20 08:06:00;;;;;;;1.27;1.27;;;22.60;75.90;;;;;;5057777;28;43436;-67
2023/09/20 08:08:30;;;;;;;1.20;1.20;;;22.60;75.40;;;;;;5074565;28;43608;-70
2023/09/20 08:10:58;;;;;;;1.40;1.40;;;22.60;75.50;;;;;;5077958;28;43430;-70
2023/09/20 08:13:41;;;;;;;1.30;1.20;;;22.60;75.80;;;;;;5085548;28;43434;-70
2023/09/20 08:16:12;;;;;;;1.30;1.30;;;22.50;76.10;;;;;;5072645;28;44062;-70
2023/09/20 08:21:29;;;;;;;1.20;1.20;;;22.50;76.20;;;;;;5078063;28;43498;-69
2023/09/20 09:00:17;;;;;;;1.37;1.37;;;22.40;74.90;;;;;;5067481;28;43404;-69
2023/09/20 09:02:45;;;;;;;1.40;1.40;;;22.50;74.50;;;;;;5083291;28;43901;-69
2023/09/20 09:05:15;;;;;;;1.37;1.37;;;22.50;74.80;;;;;;5075034;28;43846;-69
2023/09/20 09:07:43;;;;;;;1.40;1.40;;;22.50;74.80;;;;;;5072128;28;43403;-68
2023/09/20 09:10:13;;;;;;;1.17;1.17;;;22.50;74.80;;;;;;5079552;28;43353;-69
2023/09/20 09:12:43;;;;;;;1.20;1.20;;;22.50;74.90;;;;;;5074552;28;43612;-72
2023/09/20 09:15:11;;;;;;;1.33;1.33;;;22.50;75.20;;;;;;5075450;28;43432;-68
2023/09/20 09:17:40;;;;;;;1.43;1.30;;;22.40;75.30;;;;;;5081050;28;43455;-69
2023/09/20 09:20:10;;;;;;;2.00;1.40;;;22.40;75.20;;;;;;5080928;28;43483;-63
2023/09/20 09:22:38;;;;;;;1.30;1.30;;;22.30;75.00;;;;;;5077364;28;43768;-64
2023/09/20 09:25:11;;;;;;;1.33;1.33;;;22.40;75.60;;;;;;5063726;28;43774;-65
2023/09/20 09:27:40;;;;;;;1.30;1.30;;;22.30;75.50;;;;;;5075674;28;43390;-64
2023/09/20 09:30:13;;;;;;;1.40;1.40;;;22.30;75.70;;;;;;5081345;28;43450;-64
2023/09/20 09:32:43;;;;;;;1.20;1.20;;;22.30;75.70;;;;;;5077543;28;44058;-65
2023/09/20 09:35:15;;;;;;;1.20;1.20;;;22.40;75.60;;;;;;5076013;27;43560;-64
2023/09/20 09:37:48;;;;;;;1.23;1.23;;;22.50;75.10;;;;;;5075055;28;43411;-63
2023/09/20 09:40:17;;;;;;;1.40;1.40;;;22.60;74.70;;;;;;5077888;28;43608;-64
2023/09/20 09:42:46;;;;;;;1.10;1.10;;;22.70;74.50;;;;;;5055280;28;44002;-64
2023/09/20 09:45:18;;;;;;;1.20;1.20;;;22.70;74.70;;;;;;5070982;28;43951;-65
2023/09/20 09:47:47;;;;;;;1.20;1.20;;;22.60;75.00;;;;;;5080603;28;43411;-66
2023/09/20 09:50:15;;;;;;;1.10;1.10;;;22.50;75.30;;;;;;5074369;28;43466;-65
2023/09/20 09:52:43;;;;;;;1.30;1.30;;;22.50;75.60;;;;;;5073808;28;43794;-62
2023/09/20 09:55:11;;;;;;;1.20;1.20;;;22.50;75.60;;;;;;5078765;28;43379;-63
2023/09/20 09:57:39;;;;;;;1.10;1.10;;;22.40;75.60;;;;;;5077817;28;43344;-64
2023/09/20 10:00:10;;;;;;;1.30;1.30;;;22.40;75.80;;;;;;5082348;28;43450;-65
2023/09/20 10:02:41;;;;;;;1.50;1.50;;;22.40;75.60;;;;;;5079552;28;43590;-63
2023/09/20 10:05:10;;;;;;;1.37;1.37;;;22.30;75.50;;;;;;5079345;28;43428;-63
2023/09/20 10:07:41;;;;;;;1.13;1.13;;;22.30;75.80;;;;;;5080815;28;43458;-64
2023/09/20 10:10:12;;;;;;;1.50;1.40;;;22.30;75.90;;;;;;5076943;28;43988;-65
2023/09/20 10:12:41;;;;;;;1.20;1.20;;;22.30;76.10;;;;;;5071156;28;43621;-64
2023/09/20 10:15:11;;;;;;;1.17;1.17;;;22.30;75.80;;;;;;5071154;28;43429;-65
2023/09/20 10:17:45;;;;;;;1.13;1.13;;;22.40;75.70;;;;;;5075771;28;43346;-64
2023/09/20 10:20:15;;;;;;;1.30;1.30;;;22.50;75.40;;;;;;5076188;28;43548;-66
2023/09/20 10:22:45;;;;;;;1.20;1.20;;;22.60;75.10;;;;;;5074100;28;43871;-65
2023/09/20 10:25:32;;;;;;;1.10;1.10;;;22.60;75.10;;;;;;5072374;28;43514;-65
2023/09/20 10:28:03;;;;;;;1.30;1.30;;;22.60;75.40;;;;;;5066280;28;43403;-70
2023/09/20 10:30:34;;;;;;;1.10;1.10;;;22.50;75.60;;;;;;5079723;28;43428;-70
2023/09/20 10:33:04;;;;;;;0.97;0.97;;;22.50;75.50;;;;;;5073494;28;45183;-69
2023/09/20 10:35:33;;;;;;;1.30;1.30;;;22.50;75.80;;;;;;5071834;28;44249;-69
2023/09/20 10:38:22;;;;;;;1.00;1.00;;;22.40;75.70;;;;;;5073986;28;43747;-69
2023/09/20 10:41:03;;;;;;;1.37;1.37;;;22.40;75.90;;;;;;5075538;28;43931;-70
2023/09/20 10:43:50;;;;;;;1.27;1.27;;;22.30;75.90;;;;;;5073166;28;43599;-69
2023/09/20 10:46:19;;;;;;;1.43;1.33;;;22.40;75.70;;;;;;5068346;27;43425;-68
2023/09/20 10:48:50;;;;;;;1.20;1.20;;;22.40;75.90;;;;;;5075714;28;43343;-69
2023/09/20 10:51:40;;;;;;;1.10;1.10;;;22.50;74.80;;;;;;5074093;28;43480;-69
2023/09/20 10:54:22;;;;;;;1.20;1.20;;;22.70;74.60;;;;;;5073119;28;43600;-70
2023/09/20 10:57:09;;;;;;;1.00;1.00;;;22.60;74.70;;;;;;5064677;28;43434;-68
2023/09/20 10:59:38;;;;;;;1.20;1.20;;;22.60;75.10;;;;;;5076940;28;43406;-71
2023/09/20 11:02:09;;;;;;;1.40;1.40;;;22.50;75.40;;;;;;5075624;28;44182;-69
2023/09/20 11:04:39;;;;;;;1.30;1.30;;;22.50;74.90;;;;;;5079865;28;43927;-69
2023/09/20 11:07:07;;;;;;;1.30;1.30;;;22.50;76.00;;;;;;5078758;28;43407;-69
2023/09/20 11:09:38;;;;;;;1.30;1.30;;;22.40;75.60;;;;;;5059638;28;44036;-69
2023/09/20 11:12:11;;;;;;;2.67;1.63;;;22.40;76.00;;;;;;5077616;28;43490;-69
2023/09/20 11:14:40;;;;;;;5.93;1.50;;;22.40;75.90;;;;;;5077118;28;43683;-71
2023/09/20 11:17:10;;;;;;;1.50;1.40;;;22.40;75.70;;;;;;5079566;28;43472;-70
2023/09/20 11:19:39;;;;;;;1.53;1.53;;;22.40;76.20;;;;;;5048785;28;43450;-69
2023/09/20 11:22:07;;;;;;;1.30;1.30;;;22.30;76.30;;;;;;5074513;28;43551;-69
2023/09/20 11:24:37;;;;;;;1.77;1.50;;;22.30;76.20;;;;;;5070919;28;43604;-70
2023/09/20 11:27:05;;;;;;;1.50;1.50;;;22.30;75.60;;;;;;5070442;28;43512;-70
2023/09/20 11:29:36;;;;;;;1.50;1.50;;;22.40;75.60;;;;;;5078594;28;43407;-70
2023/09/20 11:32:09;;;;;;;1.50;1.50;;;22.50;75.20;;;;;;5077808;28;43393;-70
2023/09/20 11:34:46;;;;;;;1.50;1.40;;;22.60;74.70;;;;;;5071220;28;44207;-70
2023/09/20 11:37:18;;;;;;;1.40;1.40;;;22.60;74.50;;;;;;5074380;28;44020;-70
2023/09/20 11:39:47;;;;;;;1.37;1.27;;;22.60;75.10;;;;;;5076375;28;43416;-67
2023/09/20 11:42:26;;;;;;;1.80;1.67;;;22.60;75.40;;;;;;5074317;28;43439;-74
2023/09/20 11:44:58;;;;;;;1.50;1.40;;;22.50;75.40;;;;;;5076344;28;43612;-67
2023/09/20 11:47:45;;;;;;;1.50;1.40;;;22.50;75.30;;;;;;5074848;28;43454;-67
2023/09/20 11:50:15;;;;;;;1.40;1.40;;;22.50;75.70;;;;;;5073156;28;44058;-68
2023/09/20 11:52:47;;;;;;;1.47;1.47;;;22.40;75.80;;;;;;5075450;28;43359;-67
2023/09/20 11:55:15;;;;;;;1.60;1.50;;;22.40;76.00;;;;;;5077979;28;43857;-66
2023/09/20 11:57:43;;;;;;;1.30;1.30;;;22.30;75.80;;;;;;5053094;28;44604;-71
2023/09/20 12:00:18;;;;;;;1.40;1.40;;;22.30;76.10;;;;;;5075747;28;43422;-66
2023/09/20 12:02:46;;;;;;;1.30;1.30;;;22.40;76.30;;;;;;5081193;28;44058;-66
2023/09/20 12:05:18;;;;;;;2.60;1.40;;;22.30;76.30;;;;;;5074646;28;43596;-66
2023/09/20 12:07:53;;;;;;;1.40;1.40;;;22.30;76.30;;;;;;5079730;28;43841;-67
2023/09/20 12:10:22;;;;;;;1.33;1.33;;;22.30;76.10;;;;;;5078173;28;43496;-66
2023/09/20 12:12:51;;;;;;;1.40;1.40;;;22.40;75.80;;;;;;5077248;28;43431;-66
2023/09/20 12:15:20;;;;;;;1.10;1.10;;;22.50;75.40;;;;;;5072041;28;43872;-67
2023/09/20 12:17:49;;;;;;;1.63;1.50;;;22.60;74.60;;;;;;5067877;28;44401;-67
2023/09/20 12:20:18;;;;;;;1.27;1.27;;;22.70;74.70;;;;;;5072325;28;43372;-67
2023/09/20 12:22:46;;;;;;;1.53;1.43;;;22.60;75.10;;;;;;5072081;28;43377;-67
2023/09/20 12:25:15;;;;;;;1.37;1.37;;;22.60;75.40;;;;;;5075770;28;43595;-66
2023/09/20 12:27:43;;;;;;;1.30;1.30;;;22.50;75.40;;;;;;5080183;28;43439;-67
2023/09/20 12:30:13;;;;;;;1.30;1.30;;;22.50;75.50;;;;;;5072064;28;43459;-67
2023/09/20 12:32:41;;;;;;;1.30;1.20;;;22.50;75.90;;;;;;5074319;28;43465;-67
2023/09/20 12:35:10;;;;;;;1.47;1.47;;;22.40;76.00;;;;;;5079491;28;43845;-66
2023/09/20 12:37:40;;;;;;;1.40;1.40;;;22.40;76.20;;;;;;5071003;28;43424;-66
2023/09/20 12:40:09;;;;;;;1.27;1.27;;;22.40;76.20;;;;;;5073233;28;43432;-66
2023/09/20 12:42:37;;;;;;;1.60;1.50;;;22.40;75.90;;;;;;5080688;28;43951;-66
2023/09/20 12:45:07;;;;;;;1.70;1.60;;;22.50;75.40;;;;;;5072474;28;43616;-67
2023/09/20 12:47:39;;;;;;;1.57;1.57;;;22.60;74.90;;;;;;5055264;28;44823;-67
2023/09/20 12:50:12;;;;;;;1.30;1.30;;;22.60;74.70;;;;;;5076408;28;43508;-67
2023/09/20 12:52:43;;;;;;;1.40;1.40;;;22.60;75.20;;;;;;5074985;28;43334;-67
2023/09/20 12:55:13;;;;;;;1.40;1.40;;;22.60;75.40;;;;;;5075036;28;43807;-67
2023/09/20 12:57:41;;;;;;;1.20;1.20;;;22.50;75.60;;;;;;5072375;28;43439;-67
2023/09/20 13:00:16;;;;;;;1.40;1.40;;;22.50;75.60;;;;;;5079482;28;44096;-67
2023/09/20 13:03:01;;;;;;;1.20;1.20;;;22.40;75.90;;;;;;5086573;28;43479;-67
2023/09/20 13:05:30;;;;;;;1.30;1.30;;;22.40;75.90;;;;;;5082317;28;43704;-67
2023/09/20 13:08:00;;;;;;;1.17;1.17;;;22.40;76.20;;;;;;5078679;28;43437;-67
2023/09/20 13:10:28;;;;;;;1.33;1.33;;;22.30;76.10;;;;;;5076047;28;43393;-67
2023/09/20 13:12:56;;;;;;;1.23;1.23;;;22.30;76.00;;;;;;5075895;28;43316;-67
2023/09/20 13:15:24;;;;;;;1.40;1.40;;;22.30;76.30;;;;;;5063737;28;45795;-68
2023/09/20 13:17:52;;;;;;;1.20;1.20;;;22.30;76.40;;;;;;5074383;28;43537;-67
2023/09/20 13:20:20;;;;;;;1.60;1.50;;;22.30;76.50;;;;;;5074924;28;43326;-67
2023/09/20 13:22:52;;;;;;;1.43;1.43;;;22.30;76.40;;;;;;5074144;28;43459;-75
2023/09/20 13:25:22;;;;;;;1.30;1.30;;;22.30;76.10;;;;;;5080155;28;43988;-67
2023/09/20 13:27:50;;;;;;;1.20;1.20;;;22.40;75.70;;;;;;5064393;28;44151;-67
2023/09/20 13:30:18;;;;;;;1.20;1.20;;;22.60;75.30;;;;;;5079801;28;43562;-67
2023/09/20 13:32:46;;;;;;;1.33;1.33;;;22.70;75.10;;;;;;5065328;28;43428;-67
2023/09/20 13:35:16;;;;;;;1.27;1.27;;;22.70;74.90;;;;;;5067994;28;44017;-69
2023/09/20 13:37:45;;;;;;;1.33;1.33;;;22.60;75.20;;;;;;5067823;28;43527;-67
2023/09/20 13:40:15;;;;;;;1.40;1.27;;;22.60;75.40;;;;;;5075718;28;43423;-67
2023/09/20 13:42:44;;;;;;;1.40;1.40;;;22.50;75.50;;;;;;5068353;28;43480;-67